createdAt,value
2022-10-05T00:01:00.977Z,12.68
2022-10-05T00:03:34.410Z,13.77
2022-10-05T00:06:02.029Z,12.57
2022-10-05T00:08:34.234Z,10.30
2022-10-05T00:11:01.548Z,8.30
2022-10-05T00:13:31.200Z,7.60
2022-10-05T00:16:20.162Z,7.88
2022-10-05T00:18:53.114Z,7.57
2022-10-05T00:21:22.287Z,10.93
2022-10-05T00:23:50.505Z,9.05
2022-10-05T00:26:26.686Z,9.07
2022-10-05T00:28:56.779Z,9.82
2022-10-05T00:31:31.573Z,7.68
2022-10-05T00:33:59.427Z,8.55
2022-10-05T00:36:26.598Z,11.38
2022-10-05T00:38:54.818Z,10.27
2022-10-05T00:41:31.217Z,9.55
2022-10-05T00:44:00.973Z,10.73
2022-10-05T00:46:49.633Z,11.32
2022-10-05T00:49:55.400Z,9.50
2022-10-05T00:52:43.146Z,7.78
2022-10-05T00:55:47.924Z,8.07
2022-10-05T00:58:34.082Z,7.18
2022-10-05T01:01:07.379Z,7.07
2022-10-05T01:03:56.485Z,8.07
2022-10-05T01:06:45.727Z,6.70
2022-10-05T01:09:13.429Z,8.10
2022-10-05T01:11:52.304Z,8.07
2022-10-05T01:14:31.728Z,7.22
2022-10-05T01:17:06.367Z,10.82
2022-10-05T01:19:48.793Z,10.35
2022-10-05T01:22:45.769Z,11.48
2022-10-05T01:25:41.214Z,10.00
2022-10-05T01:28:08.469Z,9.88
2022-10-05T01:30:45.449Z,10.38
2022-10-05T01:33:22.725Z,13.85
2022-10-05T01:36:10.833Z,10.27
2022-10-05T01:38:47.004Z,10.48
2022-10-05T01:41:39.375Z,11.05
2022-10-05T01:44:17.742Z,10.77
2022-10-05T01:46:50.021Z,11.75
2022-10-05T01:49:32.581Z,10.93
2022-10-05T01:52:08.722Z,9.93
2022-10-05T01:54:57.750Z,9.27
2022-10-05T01:57:34.589Z,9.85
2022-10-05T02:00:09.925Z,14.90
2022-10-05T02:02:46.402Z,10.07
2022-10-05T02:05:21.856Z,9.98
2022-10-05T02:08:00.349Z,12.63
2022-10-05T02:10:51.411Z,7.78
2022-10-05T02:13:21.509Z,9.93
2022-10-05T02:16:16.349Z,7.47
2022-10-05T02:19:02.503Z,8.98
2022-10-05T02:21:33.628Z,11.02
2022-10-05T02:24:10.464Z,7.32
2022-10-05T02:26:39.283Z,6.75
2022-10-05T02:29:13.321Z,8.63
2022-10-05T02:31:56.033Z,8.25
2022-10-05T02:34:25.933Z,6.28
2022-10-05T02:37:20.661Z,8.27
2022-10-05T02:40:14.241Z,8.32
2022-10-05T02:43:01.126Z,10.23
2022-10-05T02:45:40.625Z,9.75
2022-10-05T02:48:25.447Z,7.72
2022-10-05T02:51:13.872Z,9.35
2022-10-05T02:54:07.933Z,8.52
2022-10-05T02:56:47.659Z,10.23
2022-10-05T02:59:19.426Z,8.48
2022-10-05T03:02:29.563Z,7.65
2022-10-05T03:05:15.678Z,7.25
2022-10-05T03:08:13.579Z,8.27
2022-10-05T03:10:56.068Z,8.52
2022-10-05T03:13:55.900Z,9.60
2022-10-05T03:16:26.248Z,7.30
2022-10-05T03:19:14.265Z,7.78
2022-10-05T03:21:41.386Z,9.73
2022-10-05T03:24:20.618Z,7.38
2022-10-05T03:27:18.457Z,9.43
2022-10-05T03:30:06.402Z,8.07
2022-10-05T03:33:00.940Z,9.50
2022-10-05T03:35:59.333Z,8.68
2022-10-05T03:38:51.667Z,10.05
2022-10-05T03:41:45.716Z,10.77
2022-10-05T03:44:27.705Z,12.60
2022-10-05T03:47:16.672Z,9.68
2022-10-05T03:50:25.436Z,12.02
2022-10-05T03:53:00.026Z,8.25
2022-10-05T03:55:36.079Z,9.93
2022-10-05T03:58:11.026Z,9.60
2022-10-05T04:00:40.469Z,6.63
2022-10-05T04:03:34.755Z,8.13
2022-10-05T04:06:14.836Z,9.10
2022-10-05T04:09:23.901Z,8.18
2022-10-05T04:12:09.839Z,6.25
2022-10-05T04:15:03.090Z,5.47
2022-10-05T04:17:36.819Z,5.55
2022-10-05T04:20:08.063Z,7.32
2022-10-05T04:22:37.256Z,6.25
2022-10-05T04:25:29.329Z,6.35
2022-10-05T04:28:33.861Z,8.52
2022-10-05T04:31:04.391Z,6.15
2022-10-05T04:33:32.435Z,5.50
2022-10-05T04:36:08.239Z,10.35
2022-10-05T04:38:44.470Z,7.25
2022-10-05T04:41:36.484Z,16.55
2022-10-05T04:44:15.834Z,10.98
2022-10-05T04:47:10.685Z,13.70
2022-10-05T04:50:05.911Z,7.22
2022-10-05T04:52:59.779Z,10.02
2022-10-05T04:56:14.978Z,8.55
2022-10-05T04:58:42.736Z,6.78
2022-10-05T05:01:21.894Z,7.05
2022-10-05T05:04:02.572Z,9.07
2022-10-05T05:07:04.054Z,10.23
2022-10-05T05:10:03.013Z,9.23
2022-10-05T05:13:17.914Z,9.55
2022-10-05T05:16:01.114Z,6.28
2022-10-05T05:19:06.958Z,9.00
2022-10-05T05:21:57.212Z,8.43
2022-10-05T05:24:27.622Z,7.25
2022-10-05T05:27:34.054Z,8.45
2022-10-05T05:30:36.696Z,8.15
2022-10-05T05:33:23.277Z,6.40
2022-10-05T05:36:08.548Z,6.22
2022-10-05T05:39:00.410Z,9.55
2022-10-05T05:41:37.226Z,6.55
2022-10-05T05:44:41.419Z,9.60
2022-10-05T05:47:24.067Z,7.53
2022-10-05T05:50:06.334Z,6.80
2022-10-05T05:52:47.009Z,5.47
2022-10-05T05:55:30.428Z,8.88
2022-10-05T05:58:05.918Z,6.97
2022-10-05T06:00:41.788Z,7.13
2022-10-05T06:03:35.830Z,6.18
2022-10-05T06:06:10.699Z,6.50
2022-10-05T06:08:54.021Z,8.63
2022-10-05T06:11:25.544Z,5.78
2022-10-05T06:13:57.970Z,8.75
2022-10-05T06:16:50.367Z,8.90
2022-10-05T06:19:22.365Z,4.28
2022-10-05T06:22:24.454Z,7.85
2022-10-05T06:25:10.107Z,6.85
2022-10-05T06:28:13.297Z,6.45
2022-10-05T06:31:14.466Z,8.57
2022-10-05T06:34:16.846Z,6.90
2022-10-05T06:36:56.172Z,5.65
2022-10-05T06:39:32.759Z,6.75
2022-10-05T06:42:26.346Z,7.55
2022-10-05T06:45:18.517Z,8.13
2022-10-05T06:48:04.936Z,5.32
2022-10-05T06:50:47.095Z,4.95
2022-10-05T06:53:20.008Z,5.70
2022-10-05T06:56:22.209Z,9.38
2022-10-05T06:58:52.578Z,7.30
2022-10-05T07:01:25.958Z,4.53
2022-10-05T07:04:34.580Z,7.15
2022-10-05T07:07:29.477Z,5.70
2022-10-05T07:10:14.903Z,6.60
2022-10-05T07:13:02.220Z,6.10
2022-10-05T07:15:49.787Z,7.18
2022-10-05T07:18:54.520Z,8.27
2022-10-05T07:21:43.599Z,12.15
2022-10-05T07:24:31.849Z,6.32
2022-10-05T07:27:23.544Z,4.80
2022-10-05T07:30:10.594Z,7.75
2022-10-05T07:33:07.330Z,4.53
2022-10-05T07:35:53.264Z,8.07
2022-10-05T07:38:26.097Z,6.00
2022-10-05T07:41:01.980Z,7.55
2022-10-05T07:43:57.500Z,5.20
2022-10-05T07:46:42.988Z,7.40
2022-10-05T07:49:44.218Z,5.60
2022-10-05T07:52:31.085Z,7.22
2022-10-05T07:55:30.746Z,5.68
2022-10-05T07:58:23.187Z,7.25
2022-10-05T08:01:05.199Z,4.43
2022-10-05T08:03:58.407Z,4.93
2022-10-05T08:06:37.547Z,3.45
2022-10-05T08:09:25.957Z,4.82
2022-10-05T08:12:07.096Z,7.22
2022-10-05T08:15:00.738Z,7.97
2022-10-05T08:17:40.350Z,5.70
2022-10-05T08:20:26.034Z,8.32
2022-10-05T08:23:17.414Z,6.38
2022-10-05T08:25:50.158Z,4.95
2022-10-05T08:28:37.958Z,9.50
2022-10-05T08:31:20.250Z,6.65
2022-10-05T08:34:02.955Z,5.67
2022-10-05T08:36:57.734Z,9.27
2022-10-05T08:39:30.009Z,5.53
2022-10-05T08:42:03.583Z,6.13
2022-10-05T08:44:52.280Z,4.57
2022-10-05T08:47:50.172Z,3.95
2022-10-05T08:50:56.431Z,5.10
2022-10-05T08:53:57.436Z,5.55
2022-10-05T08:56:37.230Z,5.15
2022-10-05T08:59:31.860Z,8.85
2022-10-05T09:02:14.080Z,5.60
2022-10-05T09:04:52.339Z,5.30
2022-10-05T09:07:55.151Z,5.63
2022-10-05T09:10:54.219Z,5.72
2022-10-05T09:13:24.833Z,4.10
2022-10-05T09:16:10.579Z,6.05
2022-10-05T09:18:56.053Z,4.65
2022-10-05T09:22:01.565Z,4.90
2022-10-05T09:24:52.975Z,7.18
2022-10-05T09:27:42.689Z,6.55
2022-10-05T09:30:25.162Z,7.57
2022-10-05T09:33:19.675Z,7.82
2022-10-05T09:36:04.997Z,6.68
2022-10-05T09:38:37.992Z,4.75
2022-10-05T09:44:07.467Z,7.40
2022-10-05T09:46:44.263Z,5.72
2022-10-05T09:49:20.424Z,7.97
2022-10-05T09:52:25.374Z,5.88
2022-10-05T09:55:20.314Z,7.40
2022-10-05T09:57:56.575Z,5.07
2022-10-05T10:00:44.903Z,6.30
2022-10-05T10:03:20.594Z,5.93
2022-10-05T10:05:57.316Z,13.68
2022-10-05T10:08:50.109Z,7.68
2022-10-05T10:11:29.291Z,5.82
2022-10-05T10:14:18.314Z,7.13
2022-10-05T10:17:31.986Z,7.20
2022-10-05T10:20:30.614Z,3.55
2022-10-05T10:23:03.494Z,7.78
2022-10-05T10:28:44.553Z,4.93
2022-10-05T10:32:05.956Z,6.90
2022-10-05T10:34:35.842Z,6.78
2022-10-05T10:37:27.935Z,3.92
2022-10-05T10:40:20.730Z,8.95
2022-10-05T10:43:13.065Z,4.10
2022-10-05T10:45:51.965Z,4.93
2022-10-05T10:48:19.764Z,5.55
2022-10-05T10:50:49.676Z,6.97
2022-10-05T10:53:54.203Z,4.38
2022-10-05T10:56:24.483Z,6.05
2022-10-05T10:59:10.104Z,5.07
2022-10-05T11:01:45.184Z,5.82
2022-10-05T11:04:41.269Z,7.30
2022-10-05T11:07:23.797Z,6.90
2022-10-05T11:09:50.943Z,6.82
2022-10-05T11:12:45.889Z,9.02
2022-10-05T11:15:31.124Z,6.57
2022-10-05T11:18:17.493Z,8.80
2022-10-05T11:21:11.673Z,7.70
2022-10-05T11:23:44.625Z,8.00
2022-10-05T11:26:34.728Z,9.43
2022-10-05T11:29:40.083Z,7.75
2022-10-05T11:32:19.202Z,6.30
2022-10-05T11:35:01.495Z,7.72
2022-10-05T11:37:31.610Z,5.38
2022-10-05T11:40:13.663Z,6.30
2022-10-05T11:42:54.449Z,4.57
2022-10-05T11:45:40.028Z,7.05
2022-10-05T11:48:31.913Z,8.23
2022-10-05T11:51:16.887Z,6.47
2022-10-05T11:53:50.194Z,4.57
2022-10-05T11:59:18.096Z,5.38
2022-10-05T12:02:07.271Z,7.47
2022-10-05T12:05:03.242Z,7.68
2022-10-05T12:07:44.415Z,6.97
2022-10-05T12:10:23.295Z,6.10
2022-10-05T12:13:00.525Z,6.25
2022-10-05T12:15:40.286Z,6.35
2022-10-05T12:18:29.064Z,4.75
2022-10-05T12:21:01.725Z,10.73
2022-10-05T12:26:22.640Z,5.20
2022-10-05T12:28:53.881Z,5.82
2022-10-05T12:31:33.371Z,5.57
2022-10-05T12:34:26.855Z,6.70
2022-10-05T12:37:46.974Z,8.13
2022-10-05T12:40:29.965Z,6.38
2022-10-05T12:43:20.200Z,4.57
2022-10-05T12:46:16.267Z,6.57
2022-10-05T12:49:10.768Z,6.00
2022-10-05T12:51:56.488Z,7.72
2022-10-05T12:54:44.892Z,4.38
2022-10-05T12:57:31.607Z,5.47
2022-10-05T13:00:11.533Z,3.85
2022-10-05T13:02:48.538Z,4.57
2022-10-05T13:05:26.438Z,8.75
2022-10-05T13:08:12.587Z,5.18
2022-10-05T13:11:00.014Z,7.50
2022-10-05T13:13:49.548Z,4.40
2022-10-05T13:16:40.762Z,4.65
2022-10-05T13:19:23.456Z,6.05
2022-10-05T13:22:31.823Z,4.90
2022-10-05T13:25:17.884Z,4.82
2022-10-05T13:27:50.698Z,3.70
2022-10-05T13:30:23.285Z,7.28
2022-10-05T13:32:56.876Z,5.07
2022-10-05T13:35:53.048Z,5.63
2022-10-05T13:38:38.486Z,8.80
2022-10-05T13:41:39.672Z,7.03
2022-10-05T13:44:15.397Z,7.40
2022-10-05T13:47:14.996Z,8.30
2022-10-05T13:49:55.853Z,9.95
2022-10-05T13:53:01.337Z,11.02
2022-10-05T13:55:43.416Z,13.02
2022-10-05T13:58:26.043Z,14.07
2022-10-05T14:01:01.514Z,13.57
2022-10-05T14:03:34.935Z,9.13
2022-10-05T14:06:14.170Z,9.60
2022-10-05T14:08:52.666Z,8.32
2022-10-05T14:11:34.825Z,9.05
2022-10-05T14:14:23.855Z,8.95
2022-10-05T14:16:57.430Z,5.90
2022-10-05T14:19:34.095Z,8.98
2022-10-05T14:22:13.901Z,6.43
2022-10-05T14:24:51.260Z,9.38
2022-10-05T14:27:21.278Z,9.65
2022-10-05T14:30:18.197Z,9.00
2022-10-05T14:33:03.742Z,9.02
2022-10-05T14:35:45.645Z,8.52
2022-10-05T14:38:35.115Z,8.85
2022-10-05T14:41:16.257Z,7.70
2022-10-05T14:44:05.263Z,11.95
2022-10-05T14:46:35.390Z,8.88
2022-10-05T14:49:20.847Z,9.23
2022-10-05T14:51:49.602Z,10.25
2022-10-05T14:54:58.074Z,6.95
2022-10-05T14:57:34.419Z,8.60
2022-10-05T15:00:16.997Z,11.05
2022-10-05T15:02:59.689Z,8.00
2022-10-05T15:05:39.368Z,7.55
2022-10-05T15:08:19.542Z,7.63
2022-10-05T15:10:59.225Z,8.27
2022-10-05T15:13:32.813Z,10.88
2022-10-05T15:16:12.450Z,9.68
2022-10-05T15:19:02.384Z,10.73
2022-10-05T15:21:32.848Z,10.55
2022-10-05T15:24:11.415Z,14.00
2022-10-05T15:26:52.587Z,11.90
2022-10-05T15:29:47.418Z,9.43
2022-10-05T15:32:27.233Z,11.02
2022-10-05T15:35:24.289Z,13.48
2022-10-05T15:38:21.339Z,9.32
2022-10-05T15:40:49.253Z,13.32
2022-10-05T15:43:24.101Z,10.48
2022-10-05T15:46:10.074Z,9.75
2022-10-05T15:48:58.427Z,11.98
2022-10-05T15:51:53.369Z,8.77
2022-10-05T15:54:58.549Z,11.02
2022-10-05T15:57:49.027Z,15.63
2022-10-05T16:00:19.081Z,13.73
2022-10-05T16:03:23.582Z,13.50
2022-10-05T16:05:56.933Z,12.45
2022-10-05T16:08:38.957Z,13.45
2022-10-05T16:11:16.981Z,12.15
2022-10-05T16:13:57.608Z,14.57
2022-10-05T16:16:31.348Z,13.07
2022-10-05T16:19:37.270Z,11.93
2022-10-05T16:22:43.084Z,15.68
2022-10-05T16:25:21.348Z,15.52
2022-10-05T16:28:05.243Z,13.07
2022-10-05T16:31:01.409Z,16.70
2022-10-05T16:33:37.061Z,17.25
2022-10-05T16:36:30.208Z,15.55
2022-10-05T16:39:36.684Z,15.40
2022-10-05T16:42:29.715Z,13.57
2022-10-05T16:45:22.668Z,14.40
2022-10-05T16:48:20.321Z,13.18
2022-10-05T16:50:53.552Z,13.75
2022-10-05T16:53:33.000Z,18.23
2022-10-05T16:56:14.287Z,13.63
2022-10-05T16:59:05.308Z,13.57
2022-10-05T17:01:54.737Z,12.38
2022-10-05T17:04:37.036Z,18.10
2022-10-05T17:07:15.173Z,14.60
2022-10-05T17:09:59.010Z,13.45
2022-10-05T17:12:48.145Z,14.10
2022-10-05T17:15:24.265Z,13.45
2022-10-05T17:18:11.143Z,16.55
2022-10-05T17:21:01.624Z,18.30
2022-10-05T17:23:51.880Z,16.15
2022-10-05T17:26:40.342Z,14.85
2022-10-05T17:29:28.793Z,13.05
2022-10-05T17:32:01.786Z,18.20
2022-10-05T17:34:32.050Z,15.05
2022-10-05T17:37:28.036Z,14.70
2022-10-05T17:40:03.160Z,17.50
2022-10-05T17:42:33.715Z,15.65
2022-10-05T17:45:21.282Z,18.58
2022-10-05T17:48:01.603Z,17.27
2022-10-05T17:50:48.386Z,16.50
2022-10-05T17:53:35.750Z,14.32
2022-10-05T17:56:05.076Z,16.00
2022-10-05T17:58:32.318Z,10.82
2022-10-05T18:00:59.364Z,15.73
2022-10-05T18:03:35.634Z,18.08
2022-10-05T18:06:21.400Z,15.90
2022-10-05T18:08:49.217Z,12.52
2022-10-05T18:11:28.582Z,13.60
2022-10-05T18:14:15.914Z,14.63
2022-10-05T18:17:10.314Z,15.43
2022-10-05T18:19:38.297Z,16.02
2022-10-05T18:22:25.225Z,14.80
2022-10-05T18:25:06.192Z,14.50
2022-10-05T18:27:42.003Z,16.30
2022-10-05T18:30:21.709Z,15.50
2022-10-05T18:33:11.057Z,13.95
2022-10-05T18:35:59.510Z,15.20
2022-10-05T18:39:04.259Z,11.95
2022-10-05T18:41:59.352Z,13.23
2022-10-05T18:44:46.181Z,13.48
2022-10-05T18:47:33.654Z,14.02
2022-10-05T18:50:23.831Z,13.52
2022-10-05T18:53:01.984Z,11.93
2022-10-05T18:56:06.311Z,12.02
2022-10-05T18:58:46.110Z,11.40
2022-10-05T19:01:43.102Z,11.85
2022-10-05T19:04:45.540Z,11.95
2022-10-05T19:07:27.826Z,12.77
2022-10-05T19:10:43.071Z,12.68
2022-10-05T19:13:16.066Z,14.77
2022-10-05T19:15:53.139Z,13.50
2022-10-05T19:18:29.261Z,13.52
2022-10-05T19:21:14.726Z,12.88
2022-10-05T19:23:50.787Z,15.25
2022-10-05T19:26:24.980Z,14.60
2022-10-05T19:29:33.185Z,12.05
2022-10-05T19:32:20.360Z,13.73
2022-10-05T19:35:23.405Z,12.45
2022-10-05T19:38:15.571Z,11.55
2022-10-05T19:41:14.865Z,12.23
2022-10-05T19:44:02.631Z,14.18
2022-10-05T19:47:06.971Z,14.30
2022-10-05T19:49:43.299Z,11.45
2022-10-05T19:52:37.141Z,10.57
2022-10-05T19:57:58.459Z,13.00
2022-10-05T20:00:31.796Z,13.52
2022-10-05T20:05:40.060Z,13.13
2022-10-05T20:08:08.235Z,14.20
2022-10-05T20:10:37.725Z,11.15
2022-10-05T20:13:19.199Z,11.25
2022-10-05T20:16:09.868Z,13.13
2022-10-05T20:18:48.717Z,9.75
2022-10-05T20:21:35.125Z,13.15
2022-10-05T20:24:09.855Z,10.23
2022-10-05T20:26:38.557Z,11.68
2022-10-05T20:29:09.169Z,12.35
2022-10-05T20:31:36.492Z,10.15
2022-10-05T20:34:03.824Z,10.57
2022-10-05T20:36:31.161Z,13.30
2022-10-05T20:38:58.604Z,9.82
2022-10-05T20:41:25.682Z,11.68
2022-10-05T20:43:54.489Z,12.07
2022-10-05T20:46:23.061Z,10.07
2022-10-05T20:48:50.698Z,9.38
2022-10-05T20:51:18.169Z,10.18
2022-10-05T20:53:45.539Z,10.88
2022-10-05T20:56:13.134Z,11.48
2022-10-05T20:58:40.537Z,10.93
2022-10-05T21:01:07.993Z,10.77
2022-10-05T21:03:35.453Z,12.05
2022-10-05T21:06:02.871Z,12.82
2022-10-05T21:08:30.242Z,12.95
2022-10-05T21:10:57.833Z,12.38
2022-10-05T21:13:25.136Z,10.40
2022-10-05T21:15:54.507Z,11.07
2022-10-05T21:18:21.936Z,16.48
2022-10-05T21:20:49.391Z,11.23
2022-10-05T21:23:16.438Z,13.50
2022-10-05T21:25:43.765Z,12.25
2022-10-05T21:28:11.052Z,10.45
2022-10-05T21:30:40.481Z,12.98
2022-10-05T21:33:07.808Z,11.07
2022-10-05T21:35:35.060Z,9.13
2022-10-05T21:38:02.257Z,11.35
2022-10-05T21:40:29.646Z,9.60
2022-10-05T21:42:59.346Z,12.85
2022-10-05T21:45:31.177Z,10.80
2022-10-05T21:47:58.785Z,12.73
2022-10-05T21:50:29.196Z,13.23
2022-10-05T21:52:56.869Z,11.80
2022-10-05T21:55:28.979Z,9.93
2022-10-05T21:58:00.114Z,12.15
2022-10-05T22:00:30.549Z,11.40
2022-10-05T22:02:57.730Z,12.63
2022-10-05T22:05:25.073Z,11.10
2022-10-05T22:07:52.463Z,12.35
2022-10-05T22:10:19.552Z,10.25
2022-10-05T22:12:46.836Z,13.43
2022-10-05T22:15:14.714Z,10.20
2022-10-05T22:17:44.343Z,13.40
2022-10-05T22:20:14.892Z,10.43
2022-10-05T22:22:44.510Z,11.65
2022-10-05T22:25:11.649Z,11.23
2022-10-05T22:27:41.041Z,13.23
2022-10-05T22:30:09.015Z,15.57
2022-10-05T22:32:36.135Z,11.70
2022-10-05T22:35:10.644Z,10.80
2022-10-05T22:37:39.119Z,11.20
2022-10-05T22:40:11.855Z,10.07
2022-10-05T22:42:39.810Z,13.23
2022-10-05T22:45:08.514Z,11.68
2022-10-05T22:47:35.609Z,10.68
2022-10-05T22:50:06.491Z,9.68
2022-10-05T22:52:33.916Z,11.68
2022-10-05T22:55:01.046Z,11.20
2022-10-05T22:57:28.248Z,11.05
2022-10-05T22:59:55.699Z,12.52
2022-10-05T23:02:22.825Z,10.77
2022-10-05T23:04:50.054Z,13.70
2022-10-05T23:07:17.429Z,9.80
2022-10-05T23:09:44.521Z,11.90
2022-10-05T23:12:11.606Z,12.20
2022-10-05T23:14:39.092Z,11.98
2022-10-05T23:17:06.386Z,10.10
2022-10-05T23:19:33.667Z,10.20
2022-10-05T23:22:02.117Z,9.35
2022-10-05T23:24:29.237Z,9.90
2022-10-05T23:26:56.379Z,9.35
2022-10-05T23:29:23.848Z,11.02
2022-10-05T23:31:53.213Z,9.23
2022-10-05T23:34:20.273Z,12.98
2022-10-05T23:36:47.625Z,10.52
2022-10-05T23:39:17.245Z,12.05
2022-10-05T23:41:44.506Z,9.55
2022-10-05T23:44:12.182Z,10.73
2022-10-05T23:46:39.278Z,9.80
2022-10-05T23:49:08.936Z,10.57
2022-10-05T23:51:38.866Z,9.82
2022-10-05T23:54:05.986Z,11.02
2022-10-05T23:56:33.258Z,9.20
2022-10-05T23:59:03.288Z,8.98
